• Join FlightAware (Why Join?)
  • Login
  • US Flag 
10:52AM EDT


 

Airport Tracker/Info


-or-


 

Live Flight TrackerFlight Track Log ✈ CES5589 ✈ 16-Jun-2014 ✈ ZSSS / SHA - ZSAM / XMN

Flight Track Log - Related Links

Times and Time Zones

All times are in EDT time to prevent confusion due to time zone crossing. See the CES5589 flight status page for this flight to view local times or setup timezone preferences in your user account.

Time Position Orientation Groundspeed Altitude Reporting Facility
EDT Latitude Longitude Course Direction KTS MPH feet Rate Location/Type
09:25AM 28.7711 120.1153 204° Southwest  Level Estimated
09:26AM 28.6775 120.0695 203° Southwest  Level Estimated
09:27AM 28.5840 120.0237 203° Southwest  Level Estimated
09:28AM 28.4904 119.9781 203° Southwest  Level Estimated
09:29AM 28.3968 119.9325 203° Southwest  Level Estimated
09:30AM 28.3032 119.8871 203° Southwest  Level Estimated
09:31AM 28.2095 119.8417 203° Southwest  Level Estimated
09:32AM 28.1159 119.7963 203° Southwest  Level Estimated
09:33AM 28.0222 119.7511 203° Southwest  Level Estimated
09:34AM 27.9285 119.7059 203° Southwest  Level Estimated
09:35AM 27.8348 119.6609 203° Southwest  Level Estimated
09:36AM 27.7411 119.6159 203° Southwest  Level Estimated
09:37AM 27.6474 119.5709 203° Southwest  Level Estimated
09:38AM 27.5537 119.5261 203° Southwest  Level Estimated
09:39AM 27.4599 119.4813 203° Southwest  Level Estimated
09:40AM 27.3661 119.4366 203° Southwest  Level Estimated
09:41AM 27.2724 119.3920 203° Southwest  Level Estimated
09:42AM 27.1786 119.3474 203° Southwest  Level Estimated
09:43AM 27.0848 119.3030 203° Southwest  Level Estimated
09:44AM 26.9909 119.2586 203° Southwest  Level Estimated
09:45AM 26.8971 119.2142 203° Southwest  Level Estimated
09:46AM 26.8033 119.1700 203° Southwest  Level Estimated
09:47AM 26.7094 119.1258 203° Southwest  Level Estimated
09:48AM 26.6155 119.0817 203° Southwest  Level Estimated
09:49AM 26.5216 119.0377 203° Southwest  Level Estimated
09:50AM 26.4277 118.9937 203° Southwest  Level Estimated
09:51AM 26.3338 118.9498 203° Southwest  Level Estimated
09:52AM 26.2399 118.9060 203° Southwest  Level Estimated
09:53AM 26.1459 118.8623 203° Southwest  Level Estimated
09:54AM 26.0520 118.8186 203° Southwest  Level Estimated
09:55AM 25.9580 118.7750 203° Southwest  Level Estimated
09:56AM 25.8640 118.7315 203° Southwest  Level Estimated
09:57AM 25.7700 118.6880 203° Southwest  Level Estimated
09:58AM 25.6760 118.6446 203° Southwest  Level Estimated
09:59AM 25.5820 118.6013 203° Southwest  Level Estimated
10:00AM 25.4880 118.5580 203° Southwest  Level Estimated
10:01AM 25.3939 118.5148 203° Southwest  Level Estimated
10:02AM 25.2999 118.4717 203° Southwest  Level Estimated
10:03AM 25.2058 118.4286 202° Southwest  Level Estimated
10:04AM 25.1117 118.3856 202° Southwest  Level Estimated
10:05AM 25.0089 118.3388 202° Southwest  Level Estimated
10:06AM 24.9061 118.2919 202° Southwest  Level Estimated
10:07AM 24.8033 118.2452 202° Southwest  Level Estimated
10:08AM 24.7005 118.1986 202° Southwest  Level Estimated
10:09AM 24.5977 118.1520 202° Southwest  Level Estimated
10:10AM 24.5440 118.1277 202° Southwest  Level Estimated
10:11AM 24.5440 118.1277 North  Level Estimated
10:12AM 24.5440 118.1277 North  Level Estimated
10:13AM 24.5440 118.1277 North  Level Estimated
10:14AM 24.5440 118.1277 North  Level Estimated
10:15AM 24.5440 118.1277 North  Level Estimated
10:16AM 24.5440 118.1277 North  Level Estimated
10:17AM 24.5440 118.1277 North  Level Estimated
10:18AM 24.5440 118.1277 North  Level Estimated
10:19AM 24.5440 118.1277 North  Level Estimated
10:20AM 24.5440 118.1277 North  Level Estimated